Time;durP1;ratioP1;P1;durP2;ratioP2;P2;SDS_P1;SDS_P2;PMS_P1;PMS_P2;Temp;Humidity;BMP_temperature;BMP_pressure;BME280_temperature;BME280_humidity;BME280_pressure;Samples;Min_cycle;Max_cycle;Signal;HPM_P1;HPM_P2
2023/06/05 00:02:03;;;;;;;0.08;0.08;;;;;;;14.72;62.42;102471.78;5012612;28;20479;-78
2023/06/05 00:04:29;;;;;;;0.10;0.10;;;;;;;14.77;61.80;102461.94;5006859;28;20030;-78
2023/06/05 00:06:57;;;;;;;0.00;0.00;;;;;;;14.76;62.19;102465.50;5010820;28;20030;-78
2023/06/05 00:09:23;;;;;;;0.00;0.00;;;;;;;14.64;62.21;102460.25;5014554;28;20030;-78
2023/06/05 00:11:49;;;;;;;0.10;0.10;;;;;;;14.61;61.84;102465.66;5013096;28;20026;-78
2023/06/05 00:14:16;;;;;;;0.15;0.15;;;;;;;14.55;62.74;102456.81;5013135;28;20037;-79
2023/06/05 00:16:42;;;;;;;0.10;0.10;;;;;;;14.53;62.65;102463.94;5014956;28;20023;-78
2023/06/05 00:19:08;;;;;;;0.10;0.10;;;;;;;14.51;62.21;102462.19;5033629;28;20056;-78
2023/06/05 00:21:34;;;;;;;0.10;0.10;;;;;;;14.48;62.98;102463.13;5035913;28;20089;-79
2023/06/05 00:24:01;;;;;;;0.10;0.10;;;;;;;14.45;62.35;102465.78;5024910;28;20153;-79
2023/06/05 00:26:27;;;;;;;0.00;0.00;;;;;;;14.39;63.20;102458.75;5021114;28;20026;-79
2023/06/05 00:28:53;;;;;;;0.47;0.40;;;;;;;14.39;63.25;102460.53;5020532;28;20027;-79
2023/06/05 00:31:21;;;;;;;0.10;0.10;;;;;;;14.38;63.23;102458.75;5022774;28;20040;-80
2023/06/05 00:33:48;;;;;;;0.00;0.00;;;;;;;14.37;62.48;102462.34;5023426;28;20420;-79
2023/06/05 00:36:14;;;;;;;0.10;0.10;;;;;;;14.31;63.75;102463.28;5072733;28;20028;-78
2023/06/05 00:38:40;;;;;;;0.10;0.10;;;;;;;14.30;63.17;102465.97;5017042;28;20052;-80
2023/06/05 00:41:06;;;;;;;0.10;0.10;;;;;;;14.29;63.10;102464.19;5016300;28;20042;-79
2023/06/05 00:43:33;;;;;;;0.00;0.00;;;;;;;14.24;63.66;102459.78;5019980;28;20060;-78
2023/06/05 00:46:03;;;;;;;0.08;0.08;;;;;;;14.26;63.61;102465.09;5023270;28;20052;-79
2023/06/05 00:48:31;;;;;;;0.10;0.10;;;;;;;14.17;63.03;102462.53;5019264;28;20014;-78
2023/06/05 00:50:58;;;;;;;0.00;0.00;;;;;;;14.11;63.90;102459.94;5024448;28;20049;-80
2023/06/05 00:53:25;;;;;;;0.10;0.10;;;;;;;14.11;63.58;102460.81;5016299;28;20037;-79
2023/06/05 00:55:52;;;;;;;0.10;0.10;;;;;;;14.10;62.84;102464.34;5022456;28;20028;-79
2023/06/05 00:58:19;;;;;;;0.03;0.03;;;;;;;14.09;63.65;102462.59;5014310;28;20075;-79
2023/06/05 01:00:49;;;;;;;0.10;0.10;;;;;;;14.07;64.07;102464.41;5023265;28;20034;-79
2023/06/05 01:03:16;;;;;;;0.10;0.10;;;;;;;14.07;64.33;102459.94;5020898;28;20041;-78
2023/06/05 01:05:43;;;;;;;0.10;0.10;;;;;;;14.02;64.19;102466.22;5024052;28;20078;-78
2023/06/05 01:08:12;;;;;;;0.00;0.00;;;;;;;14.04;62.90;102459.06;5005408;28;20100;-78
2023/06/05 01:10:38;;;;;;;0.38;0.38;;;;;;;14.05;63.37;102460.84;5014250;28;20042;-80
2023/06/05 01:15:40;;;;;;;0.10;0.10;;;;;;;13.96;64.03;102458.28;5133440;27;1302306;-79
2023/06/05 01:18:08;;;;;;;0.20;0.20;;;;;;;13.94;63.51;102460.06;5131149;27;20031;-79
2023/06/05 01:20:39;;;;;;;0.10;0.10;;;;;;;13.93;63.77;102460.94;5133021;27;20081;-79
2023/06/05 01:23:06;;;;;;;0.43;0.25;;;;;;;13.84;64.68;102457.44;5125961;28;20063;-80
2023/06/05 01:25:34;;;;;;;0.00;0.00;;;;;;;13.85;63.46;102459.22;5134054;28;20561;-80
2023/06/05 01:28:15;;;;;;;0.10;0.10;;;;;;;13.87;63.59;102452.13;5130743;27;20023;-80
2023/06/05 01:30:53;;;;;;;0.10;0.10;;;;;;;13.84;63.66;102457.44;5128990;27;20031;-79
2023/06/05 01:33:29;;;;;;;0.10;0.10;;;;;;;13.82;63.22;102451.28;5129394;28;20024;-79
2023/06/05 01:35:56;;;;;;;0.52;0.52;;;;;;;13.81;64.53;102456.63;5135994;28;20020;-80
2023/06/05 01:38:23;;;;;;;0.10;0.10;;;;;;;13.77;64.35;102455.75;5136246;28;20027;-79
2023/06/05 01:40:51;;;;;;;0.70;0.38;;;;;;;13.78;63.81;102457.50;5136565;28;20038;-79
2023/06/05 01:43:18;;;;;;;0.00;0.00;;;;;;;13.74;64.44;102454.00;5138911;27;20016;-79
2023/06/05 01:45:45;;;;;;;0.22;0.22;;;;;;;13.74;64.56;102448.66;5137051;28;20058;-78
2023/06/05 01:48:11;;;;;;;0.10;0.10;;;;;;;13.75;64.13;102446.88;5137494;27;20486;-78
2023/06/05 01:50:37;;;;;;;0.10;0.10;;;;;;;13.71;64.34;102447.81;5132255;27;20020;-79
2023/06/05 01:53:05;;;;;;;0.50;0.50;;;;;;;13.70;64.74;102448.69;5134776;27;20080;-78
2023/06/05 01:55:32;;;;;;;0.10;0.10;;;;;;;13.67;63.89;102444.28;5137464;28;20043;-79
2023/06/05 01:57:58;;;;;;;0.05;0.05;;;;;;;13.67;63.72;102438.94;5135964;28;20457;-78
2023/06/05 02:00:24;;;;;;;0.57;0.57;;;;;;;13.64;64.13;102438.09;5139467;28;20034;-78
2023/06/05 02:02:50;;;;;;;0.10;0.10;;;;;;;13.62;63.69;102430.13;5133721;28;20533;-79
2023/06/05 02:05:19;;;;;;;0.10;0.10;;;;;;;13.63;63.67;102439.84;5136923;27;20015;-79
2023/06/05 02:07:53;;;;;;;0.10;0.10;;;;;;;13.58;64.65;102442.56;5140181;27;20083;-78
2023/06/05 02:10:20;;;;;;;0.10;0.10;;;;;;;13.61;64.25;102435.44;5135611;28;20028;-79
2023/06/05 02:12:47;;;;;;;0.32;0.32;;;;;;;13.58;64.38;102431.00;5133443;27;20035;-79
2023/06/05 02:15:14;;;;;;;0.00;0.00;;;;;;;13.57;63.98;102435.47;5115552;28;20103;-79
2023/06/05 02:17:50;;;;;;;0.10;0.10;;;;;;;13.57;64.25;102431.91;5133543;28;20023;-80
2023/06/05 02:20:16;;;;;;;0.10;0.10;;;;;;;13.57;63.94;102432.81;5135800;28;20480;-79
2023/06/05 02:22:44;;;;;;;0.30;0.30;;;;;;;13.56;64.17;102427.50;5134189;28;20027;-78
2023/06/05 02:25:11;;;;;;;0.10;0.10;;;;;;;13.55;64.06;102423.94;5128345;28;20024;-79
2023/06/05 02:27:37;;;;;;;0.10;0.10;;;;;;;13.55;64.28;102423.06;5116823;28;20066;-78
2023/06/05 02:30:04;;;;;;;0.10;0.10;;;;;;;13.54;64.63;102430.16;5119914;28;20052;-79
2023/06/05 02:32:31;;;;;;;0.00;0.00;;;;;;;13.51;63.89;102419.53;5115705;28;20071;-79
2023/06/05 02:34:57;;;;;;;0.45;0.38;;;;;;;13.48;64.54;102422.19;5113300;28;20428;-79
2023/06/05 02:37:24;;;;;;;0.63;0.63;;;;;;;13.46;64.66;102424.00;5115885;28;20031;-79
2023/06/05 02:39:51;;;;;;;0.10;0.10;;;;;;;13.46;64.99;102425.78;5113745;28;20049;-78
2023/06/05 02:42:18;;;;;;;0.10;0.10;;;;;;;13.45;64.08;102427.56;5121590;28;20123;-79
2023/06/05 02:44:45;;;;;;;0.15;0.15;;;;;;;13.42;64.93;102430.22;5117222;28;20024;-79
2023/06/05 02:47:12;;;;;;;0.08;0.08;;;;;;;13.42;64.81;102435.56;5118383;28;20420;-79
2023/06/05 02:49:38;;;;;;;0.47;0.47;;;;;;;13.41;64.32;102433.81;5119601;28;20028;-79
2023/06/05 02:52:05;;;;;;;0.10;0.10;;;;;;;13.39;64.70;102430.25;5118878;27;20036;-79
2023/06/05 02:54:31;;;;;;;0.10;0.10;;;;;;;13.38;64.37;102425.81;5108079;28;20031;-77
2023/06/05 02:57:00;;;;;;;3.20;0.75;;;;;;;13.37;64.31;102421.34;5118214;28;20039;-77
2023/06/05 02:59:27;;;;;;;0.20;0.20;;;;;;;13.35;64.61;102421.38;5105843;28;20055;-78
2023/06/05 03:01:54;;;;;;;0.20;0.20;;;;;;;13.34;64.62;102426.72;5103791;28;20038;-78
2023/06/05 03:04:21;;;;;;;0.10;0.10;;;;;;;13.31;64.74;102419.63;5108898;28;20024;-78
2023/06/05 03:06:53;;;;;;;0.10;0.10;;;;;;;13.27;65.22;102413.44;5106430;28;20031;-78
2023/06/05 03:09:19;;;;;;;0.10;0.10;;;;;;;13.24;64.26;102423.22;5104601;28;20039;-78
2023/06/05 03:11:45;;;;;;;0.32;0.32;;;;;;;13.23;64.44;102414.38;5110729;28;20073;-78
2023/06/05 03:14:11;;;;;;;0.20;0.20;;;;;;;13.22;64.66;102420.56;5106398;28;20051;-78
2023/06/05 03:16:41;;;;;;;0.22;0.22;;;;;;;13.21;65.71;102412.59;5112194;28;20028;-79
2023/06/05 03:19:08;;;;;;;0.10;0.10;;;;;;;13.22;64.68;102404.59;5115727;28;20016;-77
2023/06/05 03:21:36;;;;;;;0.10;0.10;;;;;;;13.22;64.41;102399.28;5108926;28;20028;-77
2023/06/05 03:24:02;;;;;;;0.10;0.10;;;;;;;13.21;65.29;102401.97;5116950;28;20012;-78
2023/06/05 03:26:28;;;;;;;0.10;0.10;;;;;;;13.19;64.50;102396.63;5110865;28;20024;-78
2023/06/05 03:28:55;;;;;;;0.00;0.00;;;;;;;13.18;64.94;102397.50;5109072;28;20028;-78
2023/06/05 03:31:21;;;;;;;0.10;0.10;;;;;;;13.17;64.27;102403.75;5119747;28;20028;-78
2023/06/05 03:33:47;;;;;;;0.20;0.20;;;;;;;13.14;65.54;102413.53;5108318;28;20024;-77
2023/06/05 03:36:17;;;;;;;0.43;0.43;;;;;;;13.13;65.22;102409.97;5116441;28;20034;-78
2023/06/05 03:38:43;;;;;;;0.10;0.10;;;;;;;13.13;65.37;102409.97;5106868;28;20043;-77
2023/06/05 03:41:09;;;;;;;0.50;0.50;;;;;;;13.11;65.00;102412.66;5110511;28;20122;-77
2023/06/05 03:43:36;;;;;;;0.10;0.10;;;;;;;13.10;65.14;102407.34;5105106;28;20504;-77
2023/06/05 03:46:02;;;;;;;0.10;0.10;;;;;;;13.07;65.00;102410.00;5106015;28;20027;-77
2023/06/05 03:48:28;;;;;;;0.47;0.22;;;;;;;13.01;65.96;102407.38;5101594;28;20081;-77
2023/06/05 03:50:55;;;;;;;0.10;0.10;;;;;;;13.01;66.08;102410.03;5101792;28;20048;-77
2023/06/05 03:53:22;;;;;;;0.10;0.10;;;;;;;12.98;65.79;102404.75;5100998;28;20031;-77
2023/06/05 03:55:52;;;;;;;0.13;0.13;;;;;;;12.94;67.13;102407.41;5098309;27;20393;-77
2023/06/05 03:58:19;;;;;;;0.10;0.10;;;;;;;13.01;65.97;102412.69;5098154;28;20036;-77
2023/06/05 04:00:48;;;;;;;0.10;0.10;;;;;;;12.99;66.34;102406.50;5093184;28;20031;-77
2023/06/05 04:03:15;;;;;;;0.08;0.08;;;;;;;12.95;66.07;102414.50;5102578;28;20856;-79
2023/06/05 04:05:42;;;;;;;0.52;0.45;;;;;;;12.99;65.98;102419.81;5107114;28;20036;-78
2023/06/05 04:08:09;;;;;;;0.50;0.50;;;;;;;13.01;66.77;102418.00;5106099;28;20062;-78
2023/06/05 04:10:36;;;;;;;0.30;0.30;;;;;;;12.99;66.70;102417.16;5106230;28;20035;-78
2023/06/05 04:13:02;;;;;;;0.28;0.28;;;;;;;13.03;66.41;102416.22;5106002;28;20038;-78
2023/06/05 04:15:29;;;;;;;0.75;0.75;;;;;;;13.06;66.86;102414.44;5105398;28;20028;-79
2023/06/05 04:17:56;;;;;;;0.00;0.00;;;;;;;13.02;66.92;102423.34;5093581;28;20034;-77
2023/06/05 04:20:22;;;;;;;0.10;0.10;;;;;;;13.08;66.67;102414.44;5093577;28;20561;-78
2023/06/05 04:22:49;;;;;;;0.20;0.20;;;;;;;13.11;66.13;102414.44;5100679;28;20077;-78
2023/06/05 04:25:15;;;;;;;0.10;0.10;;;;;;;13.15;65.90;102424.16;5101794;28;20032;-78
2023/06/05 04:27:45;;;;;;;0.10;0.10;;;;;;;13.19;66.08;102425.91;5109601;28;20048;-78
2023/06/05 04:30:12;;;;;;;0.08;0.08;;;;;;;13.19;66.58;102420.56;5105066;28;20028;-78
2023/06/05 04:32:39;;;;;;;0.10;0.10;;;;;;;13.24;65.48;102428.53;5118643;28;20049;-78
2023/06/05 04:35:08;;;;;;;0.75;0.40;;;;;;;13.20;66.62;102418.81;5117383;28;20042;-78
2023/06/05 04:37:36;;;;;;;0.65;0.63;;;;;;;13.22;66.55;102422.34;5101494;28;20101;-78
2023/06/05 04:40:05;;;;;;;1.55;1.45;;;;;;;13.24;66.42;102413.44;5097949;28;20125;-78
2023/06/05 04:42:32;;;;;;;0.10;0.10;;;;;;;13.28;65.78;102424.97;5094186;28;20035;-77
2023/06/05 04:45:01;;;;;;;0.20;0.20;;;;;;;13.32;65.77;102426.72;5095583;28;20362;-77
2023/06/05 04:47:28;;;;;;;0.10;0.10;;;;;;;13.27;66.67;102429.41;5096349;28;20036;-78
2023/06/05 04:49:57;;;;;;;0.10;0.10;;;;;;;13.28;67.16;102432.94;5095317;28;20452;-77
2023/06/05 04:52:24;;;;;;;0.20;0.20;;;;;;;13.37;66.71;102429.34;5102555;28;20039;-78
2023/06/05 04:54:50;;;;;;;3.70;2.10;;;;;;;13.43;65.99;102435.56;5099125;28;20063;-77
2023/06/05 04:57:18;;;;;;;0.10;0.10;;;;;;;13.46;66.29;102433.75;5100655;28;20024;-78
2023/06/05 04:59:44;;;;;;;0.10;0.10;;;;;;;13.52;66.43;102439.94;5106893;28;20020;-77
2023/06/05 05:02:11;;;;;;;0.10;0.10;;;;;;;13.55;66.22;102431.91;5107012;28;20028;-77
2023/06/05 05:04:37;;;;;;;28.95;1.55;;;;;;;13.51;66.12;102427.53;5112345;28;20049;-76
2023/06/05 05:07:04;;;;;;;0.10;0.10;;;;;;;13.57;66.12;102437.22;5107055;28;20032;-77
2023/06/05 05:09:31;;;;;;;0.10;0.10;;;;;;;13.56;66.62;102438.16;5101291;28;20023;-78
2023/06/05 05:11:58;;;;;;;0.20;0.20;;;;;;;13.62;66.46;102437.19;5109383;28;20032;-78
2023/06/05 05:14:27;;;;;;;0.10;0.10;;;;;;;13.67;66.38;102440.72;5108227;28;20044;-78
2023/06/05 05:16:55;;;;;;;0.20;0.20;;;;;;;13.69;66.00;102438.94;5099525;28;20032;-78
2023/06/05 05:19:22;;;;;;;0.10;0.10;;;;;;;13.69;65.70;102430.94;5100534;28;20508;-76
2023/06/05 05:21:48;;;;;;;0.10;0.10;;;;;;;13.76;65.53;102438.00;5101373;28;20050;-78
2023/06/05 05:24:14;;;;;;;0.05;0.05;;;;;;;13.75;65.61;102434.44;5101542;28;20077;-78
2023/06/05 05:26:41;;;;;;;0.13;0.13;;;;;;;13.73;65.33;102432.69;5100637;28;20031;-79
2023/06/05 05:29:07;;;;;;;0.10;0.10;;;;;;;13.82;65.58;102434.38;5103566;28;20482;-77
2023/06/05 05:31:34;;;;;;;0.65;0.40;;;;;;;13.90;65.07;102435.22;5106939;28;20051;-77
2023/06/05 05:34:00;;;;;;;0.10;0.10;;;;;;;13.97;65.12;102430.72;5108518;28;20044;-78
2023/06/05 05:36:27;;;;;;;0.10;0.10;;;;;;;13.99;65.23;102434.25;5110688;28;20114;-78
2023/06/05 05:38:54;;;;;;;0.10;0.10;;;;;;;14.05;64.57;102439.53;5101793;28;20073;-76
2023/06/05 05:41:21;;;;;;;0.10;0.10;;;;;;;14.08;64.67;102450.16;5107461;28;20446;-77
2023/06/05 05:43:47;;;;;;;0.32;0.32;;;;;;;14.18;64.38;102440.28;5099401;28;20032;-77
2023/06/05 05:46:13;;;;;;;1.38;0.80;;;;;;;14.21;64.02;102443.81;5107376;28;20302;-78
2023/06/05 05:48:39;;;;;;;0.00;0.00;;;;;;;14.26;64.02;102442.91;5110855;28;20055;-77
2023/06/05 05:51:07;;;;;;;0.77;0.65;;;;;;;14.28;64.27;102436.66;5102396;28;20107;-77
2023/06/05 05:53:33;;;;;;;0.00;0.00;;;;;;;14.33;64.15;102433.91;5110015;28;20024;-79
2023/06/05 05:56:00;;;;;;;0.22;0.22;;;;;;;14.35;64.05;102440.13;5111139;28;20036;-77
2023/06/05 05:58:26;;;;;;;0.22;0.22;;;;;;;14.41;64.02;102437.41;5109993;28;20016;-77
2023/06/05 06:00:52;;;;;;;1.65;1.45;;;;;;;14.51;63.90;102430.19;5109940;28;20031;-77
2023/06/05 06:03:19;;;;;;;0.20;0.20;;;;;;;14.55;63.38;102434.59;5104386;28;20032;-78
2023/06/05 06:05:45;;;;;;;0.00;0.00;;;;;;;14.56;63.54;102431.03;5112588;28;20043;-77
2023/06/05 06:08:12;;;;;;;0.00;0.00;;;;;;;14.62;63.63;102438.94;5112707;28;20089;-77
2023/06/05 06:10:38;;;;;;;0.20;0.20;;;;;;;14.63;63.24;102445.16;5120638;28;20056;-77
2023/06/05 06:13:05;;;;;;;0.10;0.10;;;;;;;14.68;63.54;102452.25;5126016;28;20035;-77
2023/06/05 06:15:32;;;;;;;0.10;0.10;;;;;;;14.78;63.25;102449.47;5130702;28;20053;-78
2023/06/05 06:18:02;;;;;;;0.25;0.25;;;;;;;14.81;63.21;102444.09;5127119;28;20031;-77
2023/06/05 06:20:28;;;;;;;0.45;0.45;;;;;;;14.84;62.88;102436.06;5133598;28;20095;-77
2023/06/05 06:22:54;;;;;;;0.20;0.20;;;;;;;14.88;62.63;102444.00;5131672;28;20070;-78
2023/06/05 06:25:21;;;;;;;0.10;0.10;;;;;;;14.88;62.96;102444.00;5128141;28;20047;-76
2023/06/05 06:27:49;;;;;;;0.10;0.10;;;;;;;14.91;62.66;102440.41;5123561;28;20058;-79
2023/06/05 06:30:15;;;;;;;0.00;0.00;;;;;;;14.97;62.64;102443.00;5116242;28;20434;-76
2023/06/05 06:32:41;;;;;;;0.20;0.20;;;;;;;14.97;62.74;102442.13;5113883;28;20030;-77
2023/06/05 06:35:08;;;;;;;0.00;0.00;;;;;;;15.05;62.44;102437.56;5105081;28;20620;-77
2023/06/05 06:37:34;;;;;;;0.30;0.30;;;;;;;15.04;62.56;102443.78;5114933;28;20027;-77
2023/06/05 06:40:00;;;;;;;0.40;0.40;;;;;;;15.04;62.05;102441.13;5112170;28;20083;-78
2023/06/05 06:42:27;;;;;;;0.20;0.20;;;;;;;15.16;62.01;102443.63;5126499;28;20023;-77
2023/06/05 06:44:55;;;;;;;1.48;1.23;;;;;;;15.24;62.00;102451.56;5128985;28;20015;-78
2023/06/05 06:47:22;;;;;;;0.63;0.30;;;;;;;15.30;61.76;102450.56;5126985;28;20038;-78
2023/06/05 06:49:49;;;;;;;0.10;0.10;;;;;;;15.39;61.54;102449.56;5127564;28;20063;-78
2023/06/05 06:52:16;;;;;;;0.10;0.10;;;;;;;15.46;61.71;102441.44;5125761;28;20035;-78
2023/06/05 06:54:42;;;;;;;0.10;0.10;;;;;;;15.46;61.29;102444.09;5119251;28;20032;-77
2023/06/05 06:57:08;;;;;;;0.50;0.50;;;;;;;15.45;61.21;102446.81;5124816;28;20393;-73
2023/06/05 06:59:34;;;;;;;0.08;0.08;;;;;;;15.52;61.27;102451.16;5120188;28;20050;-75
2023/06/05 07:02:17;;;;;;;0.10;0.10;;;;;;;15.67;61.13;102450.03;5120226;28;20111;-75
2023/06/05 07:04:44;;;;;;;0.63;0.25;;;;;;;15.67;60.91;102445.56;5109376;28;20054;-77
2023/06/05 07:07:12;;;;;;;0.05;0.05;;;;;;;15.72;60.51;102453.53;5119892;28;20031;-77
2023/06/05 07:09:40;;;;;;;0.10;0.10;;;;;;;15.84;60.60;102453.34;5117910;28;20754;-77
2023/06/05 07:12:08;;;;;;;1.75;1.65;;;;;;;15.91;60.63;102461.28;5121905;28;20046;-77
2023/06/05 07:14:34;;;;;;;0.10;0.10;;;;;;;15.84;60.21;102448.00;5111769;28;20035;-77
2023/06/05 07:17:01;;;;;;;0.90;0.90;;;;;;;15.99;60.18;102452.22;5117783;28;20036;-77
2023/06/05 07:19:29;;;;;;;0.10;0.10;;;;;;;16.03;60.07;102458.41;5100677;28;20028;-77
2023/06/05 07:21:57;;;;;;;0.10;0.10;;;;;;;16.14;59.93;102464.44;5093560;28;20162;-76
2023/06/05 07:24:28;;;;;;;0.00;0.00;;;;;;;16.18;59.78;102457.25;5103656;28;20020;-75
2023/06/05 07:26:56;;;;;;;0.10;0.10;;;;;;;16.24;59.62;102459.81;5117052;28;20139;-79
2023/06/05 07:29:23;;;;;;;0.00;0.00;;;;;;;16.39;59.38;102463.13;5120074;28;20032;-79
2023/06/05 07:31:50;;;;;;;0.10;0.10;;;;;;;16.44;58.99;102453.22;5107170;28;20067;-77
2023/06/05 07:34:18;;;;;;;0.45;0.45;;;;;;;16.54;59.09;102451.25;5109779;28;20051;-79
2023/06/05 07:36:46;;;;;;;0.10;0.10;;;;;;;16.65;59.27;102457.28;5102364;28;20028;-77
2023/06/05 07:39:14;;;;;;;0.10;0.10;;;;;;;16.72;59.02;102456.22;5103777;28;20038;-77
2023/06/05 07:41:40;;;;;;;0.00;0.00;;;;;;;16.78;58.90;102448.06;5114044;28;20056;-76
2023/06/05 07:44:11;;;;;;;0.15;0.15;;;;;;;16.89;58.30;102449.66;5112538;28;20031;-78
2023/06/05 07:46:40;;;;;;;0.15;0.15;;;;;;;16.98;57.87;102449.50;5114471;28;20028;-77
2023/06/05 07:49:07;;;;;;;0.95;0.47;;;;;;;17.05;57.72;102456.47;5111301;28;20065;-79
2023/06/05 07:51:35;;;;;;;0.10;0.10;;;;;;;17.04;56.97;102449.34;5108953;28;20042;-76
2023/06/05 07:54:03;;;;;;;0.00;0.00;;;;;;;17.20;57.10;102447.22;5112058;27;20027;-77
2023/06/05 07:56:35;;;;;;;0.20;0.20;;;;;;;17.28;57.03;102452.41;5113054;28;20481;-78
2023/06/05 07:59:03;;;;;;;0.10;0.10;;;;;;;17.32;56.62;102443.41;5107650;28;20134;-78
2023/06/05 08:01:30;;;;;;;0.10;0.10;;;;;;;17.39;56.53;102447.69;5120095;28;20083;-80
2023/06/05 08:03:56;;;;;;;0.10;0.10;;;;;;;17.39;56.33;102450.38;5117273;28;20028;-78
2023/06/05 08:06:24;;;;;;;0.20;0.20;;;;;;;17.48;56.01;102443.91;5122316;28;20054;-77
2023/06/05 08:08:51;;;;;;;0.10;0.10;;;;;;;17.53;56.11;102433.97;5121431;28;20024;-79
2023/06/05 08:11:18;;;;;;;0.00;0.00;;;;;;;17.58;56.00;102437.44;5118482;28;20032;-78
2023/06/05 08:13:45;;;;;;;0.10;0.10;;;;;;;17.59;55.81;102438.31;5118170;28;20061;-78
2023/06/05 08:16:11;;;;;;;0.00;0.00;;;;;;;17.72;55.78;102436.19;5113044;28;20079;-79
2023/06/05 08:18:37;;;;;;;0.08;0.08;;;;;;;17.78;55.96;102447.66;5113460;28;20024;-80
2023/06/05 08:21:03;;;;;;;0.10;0.10;;;;;;;17.87;55.53;102435.81;5114085;28;20036;-79
2023/06/05 08:23:29;;;;;;;0.10;0.10;;;;;;;17.94;55.34;102436.56;5114587;28;20032;-79
2023/06/05 08:25:55;;;;;;;0.10;0.10;;;;;;;18.04;55.46;102437.22;5106634;28;20203;-81
2023/06/05 08:28:22;;;;;;;0.95;0.95;;;;;;;18.17;55.18;102438.66;5112381;28;20032;-77
2023/06/05 08:30:49;;;;;;;0.00;0.00;;;;;;;18.23;55.12;102433.16;5116709;28;20420;-79
2023/06/05 08:33:15;;;;;;;0.10;0.10;;;;;;;18.23;54.12;102426.88;5118707;28;20050;-80
2023/06/05 08:35:42;;;;;;;0.10;0.10;;;;;;;18.29;54.22;102429.41;5119292;28;20024;-79
2023/06/05 08:38:08;;;;;;;0.00;0.00;;;;;;;18.31;53.99;102429.38;5098267;28;20104;-78
2023/06/05 08:40:36;;;;;;;0.10;0.10;;;;;;;18.38;53.82;102434.53;5108213;28;20299;-77
2023/06/05 08:43:03;;;;;;;1.40;0.57;;;;;;;18.44;54.34;102430.78;5094040;28;20028;-77
2023/06/05 08:45:30;;;;;;;0.10;0.10;;;;;;;18.53;54.44;102438.59;5093412;28;20034;-78
2023/06/05 08:48:01;;;;;;;0.10;0.10;;;;;;;18.66;54.80;102430.19;5098549;28;20105;-77
2023/06/05 08:50:30;;;;;;;0.10;0.10;;;;;;;18.76;54.30;102432.53;5106230;28;20382;-77
2023/06/05 08:53:00;;;;;;;0.10;0.10;;;;;;;18.89;54.07;102425.03;5108012;28;20051;-80
2023/06/05 08:55:27;;;;;;;0.00;0.00;;;;;;;18.90;53.99;102428.56;5115188;28;20027;-80
2023/06/05 08:57:54;;;;;;;0.65;0.65;;;;;;;18.97;53.39;102430.19;5115643;28;20385;-79
2023/06/05 09:00:22;;;;;;;0.10;0.10;;;;;;;18.97;53.31;102424.81;5114865;28;20051;-78
2023/06/05 09:02:48;;;;;;;0.10;0.10;;;;;;;18.98;53.05;102431.97;5100161;28;20028;-79
2023/06/05 09:05:15;;;;;;;0.57;0.57;;;;;;;19.07;52.69;102431.66;5094133;28;20036;-79
2023/06/05 09:07:41;;;;;;;0.20;0.20;;;;;;;19.03;51.88;102435.38;5098691;28;20040;-79
2023/06/05 09:10:28;;;;;;;0.20;0.20;;;;;;;19.04;51.84;102415.66;5113225;28;20477;-78
2023/06/05 09:12:57;;;;;;;0.20;0.20;;;;;;;19.12;52.17;102428.84;5105726;28;20039;-77
2023/06/05 09:15:27;;;;;;;0.03;0.03;;;;;;;19.16;51.96;102421.56;5112441;28;20040;-79
2023/06/05 09:20:47;;;;;;;0.00;0.00;;;;;;;19.03;51.04;102419.25;5111447;27;20383;-78
2023/06/05 09:23:32;;;;;;;0.10;0.10;;;;;;;19.26;51.06;102414.97;5111403;28;20034;-79
2023/06/05 09:26:00;;;;;;;0.10;0.10;;;;;;;19.30;51.70;102416.66;5113024;28;20032;-79
2023/06/05 09:28:26;;;;;;;0.10;0.10;;;;;;;19.37;51.66;102422.72;5094687;28;20032;-80
2023/06/05 09:30:56;;;;;;;0.10;0.10;;;;;;;19.55;51.86;102413.16;5095089;28;20462;-80
2023/06/05 09:33:24;;;;;;;0.00;0.00;;;;;;;19.56;51.25;102412.22;5096704;28;20036;-80
2023/06/05 09:36:11;;;;;;;0.10;0.10;;;;;;;19.82;50.46;102410.47;5094831;28;20112;-80
2023/06/05 09:38:40;;;;;;;0.10;0.10;;;;;;;19.88;50.27;102404.94;5094629;28;20039;-80
2023/06/05 09:43:41;;;;;;;0.10;0.10;;;;;;;20.00;50.75;102404.50;5125709;27;1190008;-80
2023/06/05 09:48:57;;;;;;;0.30;0.30;;;;;;;20.26;50.01;102407.19;5111014;27;20380;-82
2023/06/05 09:51:23;;;;;;;2.28;1.20;;;;;;;20.26;50.86;102412.56;5084444;28;20052;-82
2023/06/05 09:53:50;;;;;;;0.10;0.10;;;;;;;20.42;50.28;102402.13;5092165;28;20501;-82
2023/06/05 09:56:19;;;;;;;0.15;0.15;;;;;;;20.45;49.69;102404.69;5099090;28;20081;-83
2023/06/05 09:58:49;;;;;;;0.10;0.10;;;;;;;20.54;48.96;102412.47;5091366;28;20621;-83
2023/06/05 10:01:22;;;;;;;0.20;0.20;;;;;;;20.56;49.44;102410.59;5086954;28;20472;-83
2023/06/05 10:03:56;;;;;;;0.40;0.40;;;;;;;20.58;48.75;102406.00;5100459;28;20107;-82
2023/06/05 10:06:23;;;;;;;0.15;0.15;;;;;;;20.59;49.39;102402.38;5098845;28;20028;-83
2023/06/05 10:08:52;;;;;;;0.30;0.30;;;;;;;20.53;48.57;102406.16;5113707;28;20028;-77
2023/06/05 10:11:20;;;;;;;0.10;0.10;;;;;;;20.69;48.46;102395.72;5111715;28;20034;-78
2023/06/05 10:13:49;;;;;;;1.55;0.85;;;;;;;20.73;48.19;102401.88;5112249;28;20397;-78
2023/06/05 10:16:17;;;;;;;0.20;0.20;;;;;;;20.80;48.11;102399.88;5111870;28;20103;-79
2023/06/05 10:18:47;;;;;;;0.10;0.10;;;;;;;20.78;46.22;102394.50;5102734;28;20020;-79
2023/06/05 10:21:17;;;;;;;0.10;0.10;;;;;;;20.93;46.90;102387.66;5094211;28;20067;-79
2023/06/05 10:23:49;;;;;;;0.10;0.10;;;;;;;20.96;47.45;102392.94;5109021;28;20065;-79
2023/06/05 10:29:54;;;;;;;0.20;0.20;;;;;;;21.15;46.70;102387.69;5104282;27;20394;-79
2023/06/05 10:32:53;;;;;;;0.25;0.25;;;;;;;21.13;46.31;102377.91;5108230;28;20044;-77
2023/06/05 10:35:45;;;;;;;0.22;0.22;;;;;;;21.16;47.15;102383.19;5109182;28;20119;-79
2023/06/05 10:40:54;;;;;;;0.13;0.13;;;;;;;21.17;45.97;102376.81;5113495;27;20420;-77
2023/06/05 10:51:46;;;;;;;0.80;0.80;;;;;;;21.59;46.78;102375.16;5108276;27;20412;-78
2023/06/05 10:54:34;;;;;;;0.20;0.20;;;;;;;21.61;46.58;102376.00;5111456;28;20032;-76
2023/06/05 10:57:03;;;;;;;0.85;0.85;;;;;;;21.70;46.44;102377.41;5108153;28;20581;-77
2023/06/05 10:59:31;;;;;;;0.20;0.20;;;;;;;21.78;46.44;102377.94;5096269;28;20456;-76
2023/06/05 11:07:26;;;;;;;0.10;0.10;;;;;;;22.09;45.47;102371.22;5108922;27;20087;-79
2023/06/05 11:10:10;;;;;;;0.25;0.25;;;;;;;22.14;44.70;102375.47;5081962;28;20060;-78
2023/06/05 11:15:14;;;;;;;0.43;0.43;;;;;;;22.02;45.05;102367.03;5131672;27;20134;-78
2023/06/05 11:17:48;;;;;;;0.30;0.30;;;;;;;22.07;45.00;102365.00;5094251;28;20058;-78
2023/06/05 11:25:40;;;;;;;0.10;0.10;;;;;;;22.34;43.72;102357.47;5090269;27;1888604;-79
2023/06/05 11:28:08;;;;;;;0.52;0.52;;;;;;;22.49;44.55;102355.06;5116904;28;20067;-79
2023/06/05 11:30:44;;;;;;;0.10;0.10;;;;;;;22.58;43.63;102360.00;5115285;28;20039;-76
2023/06/05 11:33:13;;;;;;;0.10;0.10;;;;;;;22.67;44.03;102356.91;5118846;28;20490;-78
2023/06/05 11:35:40;;;;;;;0.10;0.10;;;;;;;22.76;44.05;102352.88;5116249;28;20042;-77
2023/06/05 11:38:22;;;;;;;0.20;0.20;;;;;;;22.91;43.26;102352.13;5116117;28;20032;-78
2023/06/05 11:40:48;;;;;;;0.10;0.10;;;;;;;22.79;42.71;102352.72;5109791;28;20082;-78
2023/06/05 11:43:15;;;;;;;0.10;0.10;;;;;;;22.89;42.59;102351.34;5117076;28;20036;-77
2023/06/05 11:45:48;;;;;;;0.10;0.10;;;;;;;22.93;44.33;102347.53;5107969;28;20058;-77
2023/06/05 11:48:14;;;;;;;0.10;0.10;;;;;;;22.89;42.99;102345.94;5107096;28;20034;-77
2023/06/05 11:53:32;;;;;;;0.10;0.10;;;;;;;23.08;43.63;102335.09;5076334;28;20408;-78
2023/06/05 11:56:06;;;;;;;0.03;0.03;;;;;;;23.16;42.86;102332.03;5076679;28;20024;-78
2023/06/05 11:58:37;;;;;;;0.10;0.10;;;;;;;23.18;42.13;102340.06;5055986;28;20025;-78
2023/06/05 12:01:25;;;;;;;0.10;0.10;;;;;;;23.30;43.52;102338.59;5057264;28;20047;-77
2023/06/05 12:04:07;;;;;;;0.10;0.10;;;;;;;23.43;42.32;102337.91;5059782;28;20041;-77
2023/06/05 12:06:42;;;;;;;0.00;0.00;;;;;;;23.38;40.98;102339.97;5063954;28;20119;-77
2023/06/05 12:09:11;;;;;;;0.20;0.20;;;;;;;23.61;42.35;102329.78;5049070;28;20482;-74
2023/06/05 12:11:38;;;;;;;0.20;0.20;;;;;;;23.68;43.00;102330.38;5047101;28;20029;-76